sensor_id;sensor_type;location;lat;lon;timestamp;pressure;altitude;pressure_sealevel;temperature;humidity
21640;BME280;10981;45.462;10.974;2024-03-17T00:00:11;101170.81;;;12.27;100.00
21640;BME280;10981;45.462;10.974;2024-03-17T00:02:45;101172.53;;;12.17;100.00
21640;BME280;10981;45.462;10.974;2024-03-17T00:05:12;101166.31;;;12.06;100.00
21640;BME280;10981;45.462;10.974;2024-03-17T00:07:40;101167.28;;;11.94;100.00
21640;BME280;10981;45.462;10.974;2024-03-17T00:10:07;101168.69;;;11.87;100.00
21640;BME280;10981;45.462;10.974;2024-03-17T00:12:35;101156.06;;;11.81;100.00
21640;BME280;10981;45.462;10.974;2024-03-17T00:15:05;101156.78;;;11.83;100.00
21640;BME280;10981;45.462;10.974;2024-03-17T00:17:34;101152.03;;;11.76;100.00
21640;BME280;10981;45.462;10.974;2024-03-17T00:20:05;101150.69;;;11.71;100.00
21640;BME280;10981;45.462;10.974;2024-03-17T00:22:38;101143.22;;;11.66;100.00
21640;BME280;10981;45.462;10.974;2024-03-17T00:25:08;101146.06;;;11.63;100.00
21640;BME280;10981;45.462;10.974;2024-03-17T00:27:35;101148.31;;;11.56;100.00
21640;BME280;10981;45.462;10.974;2024-03-17T00:30:07;101149.53;;;11.52;100.00
21640;BME280;10981;45.462;10.974;2024-03-17T00:32:39;101152.38;;;11.49;100.00
21640;BME280;10981;45.462;10.974;2024-03-17T00:35:10;101157.72;;;11.48;100.00
21640;BME280;10981;45.462;10.974;2024-03-17T00:37:41;101163.44;;;11.41;100.00
21640;BME280;10981;45.462;10.974;2024-03-17T00:40:08;101165.81;;;11.33;100.00
21640;BME280;10981;45.462;10.974;2024-03-17T00:42:36;101166.75;;;11.21;100.00
21640;BME280;10981;45.462;10.974;2024-03-17T00:45:03;101173.63;;;11.10;100.00
21640;BME280;10981;45.462;10.974;2024-03-17T00:47:32;101176.94;;;11.01;100.00
21640;BME280;10981;45.462;10.974;2024-03-17T00:50:00;101176.53;;;10.94;100.00
21640;BME280;10981;45.462;10.974;2024-03-17T00:52:27;101176.66;;;10.93;100.00
21640;BME280;10981;45.462;10.974;2024-03-17T00:54:55;101175.97;;;10.91;100.00
21640;BME280;10981;45.462;10.974;2024-03-17T00:57:22;101184.53;;;10.93;100.00
21640;BME280;10981;45.462;10.974;2024-03-17T00:59:50;101183.91;;;10.89;100.00
21640;BME280;10981;45.462;10.974;2024-03-17T01:02:19;101189.38;;;10.86;100.00
21640;BME280;10981;45.462;10.974;2024-03-17T01:04:48;101187.00;;;10.83;100.00
21640;BME280;10981;45.462;10.974;2024-03-17T01:07:15;101193.19;;;10.82;100.00
21640;BME280;10981;45.462;10.974;2024-03-17T01:09:43;101190.69;;;10.81;100.00
21640;BME280;10981;45.462;10.974;2024-03-17T01:12:11;101196.00;;;10.79;100.00
21640;BME280;10981;45.462;10.974;2024-03-17T01:14:38;101201.34;;;10.77;100.00
21640;BME280;10981;45.462;10.974;2024-03-17T01:17:05;101195.31;;;10.77;100.00
21640;BME280;10981;45.462;10.974;2024-03-17T01:19:33;101197.41;;;10.72;100.00
21640;BME280;10981;45.462;10.974;2024-03-17T01:22:01;101199.63;;;10.65;100.00
21640;BME280;10981;45.462;10.974;2024-03-17T01:24:29;101206.88;;;10.61;100.00
21640;BME280;10981;45.462;10.974;2024-03-17T01:27:01;101207.22;;;10.57;100.00
21640;BME280;10981;45.462;10.974;2024-03-17T01:29:28;101204.81;;;10.54;100.00
21640;BME280;10981;45.462;10.974;2024-03-17T01:31:55;101201.38;;;10.53;100.00
21640;BME280;10981;45.462;10.974;2024-03-17T01:34:23;101202.19;;;10.54;100.00
21640;BME280;10981;45.462;10.974;2024-03-17T01:36:50;101204.81;;;10.54;100.00
21640;BME280;10981;45.462;10.974;2024-03-17T01:39:18;101202.81;;;10.57;100.00
21640;BME280;10981;45.462;10.974;2024-03-17T01:41:45;101197.69;;;10.56;100.00
21640;BME280;10981;45.462;10.974;2024-03-17T01:44:33;101189.34;;;10.51;100.00
21640;BME280;10981;45.462;10.974;2024-03-17T01:47:00;101187.91;;;10.46;100.00
21640;BME280;10981;45.462;10.974;2024-03-17T01:49:27;101178.69;;;10.41;100.00
21640;BME280;10981;45.462;10.974;2024-03-17T01:51:55;101178.09;;;10.37;100.00
21640;BME280;10981;45.462;10.974;2024-03-17T01:54:23;101171.59;;;10.30;100.00
21640;BME280;10981;45.462;10.974;2024-03-17T01:56:50;101166.38;;;10.30;100.00
21640;BME280;10981;45.462;10.974;2024-03-17T01:59:17;101149.31;;;10.24;100.00
21640;BME280;10981;45.462;10.974;2024-03-17T02:01:45;101154.00;;;10.32;100.00
21640;BME280;10981;45.462;10.974;2024-03-17T02:04:12;101158.28;;;10.33;100.00
21640;BME280;10981;45.462;10.974;2024-03-17T02:06:39;101155.91;;;10.30;100.00
21640;BME280;10981;45.462;10.974;2024-03-17T02:09:08;101146.63;;;10.26;100.00
21640;BME280;10981;45.462;10.974;2024-03-17T02:11:36;101149.81;;;10.29;100.00
21640;BME280;10981;45.462;10.974;2024-03-17T02:14:04;101145.44;;;10.30;100.00
21640;BME280;10981;45.462;10.974;2024-03-17T02:16:33;101140.22;;;10.30;100.00
21640;BME280;10981;45.462;10.974;2024-03-17T02:19:03;101131.63;;;10.28;100.00
21640;BME280;10981;45.462;10.974;2024-03-17T02:21:30;101139.84;;;10.23;100.00
21640;BME280;10981;45.462;10.974;2024-03-17T02:23:58;101139.09;;;10.21;100.00
21640;BME280;10981;45.462;10.974;2024-03-17T02:26:26;101136.59;;;10.20;100.00
21640;BME280;10981;45.462;10.974;2024-03-17T02:28:53;101141.84;;;10.20;100.00
21640;BME280;10981;45.462;10.974;2024-03-17T02:31:21;101143.59;;;10.19;100.00
21640;BME280;10981;45.462;10.974;2024-03-17T02:33:50;101139.41;;;10.17;100.00
21640;BME280;10981;45.462;10.974;2024-03-17T02:36:17;101135.13;;;10.15;100.00
21640;BME280;10981;45.462;10.974;2024-03-17T02:38:44;101133.56;;;10.13;100.00
21640;BME280;10981;45.462;10.974;2024-03-17T02:41:30;101130.25;;;10.11;100.00
21640;BME280;10981;45.462;10.974;2024-03-17T02:43:57;101134.63;;;10.10;100.00
21640;BME280;10981;45.462;10.974;2024-03-17T02:46:26;101130.00;;;10.14;100.00
21640;BME280;10981;45.462;10.974;2024-03-17T02:48:53;101141.31;;;10.14;100.00
21640;BME280;10981;45.462;10.974;2024-03-17T02:51:22;101136.19;;;10.13;100.00
21640;BME280;10981;45.462;10.974;2024-03-17T02:53:50;101135.78;;;10.06;100.00
21640;BME280;10981;45.462;10.974;2024-03-17T02:56:18;101129.75;;;10.06;100.00
21640;BME280;10981;45.462;10.974;2024-03-17T02:58:47;101137.28;;;9.97;100.00
21640;BME280;10981;45.462;10.974;2024-03-17T03:01:15;101134.50;;;9.88;100.00
21640;BME280;10981;45.462;10.974;2024-03-17T03:03:42;101127.72;;;9.85;100.00
21640;BME280;10981;45.462;10.974;2024-03-17T03:06:10;101121.53;;;9.86;100.00
21640;BME280;10981;45.462;10.974;2024-03-17T03:08:39;101123.44;;;9.84;100.00
21640;BME280;10981;45.462;10.974;2024-03-17T03:11:09;101119.38;;;9.80;100.00
21640;BME280;10981;45.462;10.974;2024-03-17T03:13:41;101121.34;;;9.76;100.00
21640;BME280;10981;45.462;10.974;2024-03-17T03:16:14;101129.50;;;9.72;100.00
21640;BME280;10981;45.462;10.974;2024-03-17T03:18:41;101121.03;;;9.68;100.00
21640;BME280;10981;45.462;10.974;2024-03-17T03:21:11;101129.63;;;9.70;100.00
21640;BME280;10981;45.462;10.974;2024-03-17T03:23:42;101124.50;;;9.69;100.00
21640;BME280;10981;45.462;10.974;2024-03-17T03:26:11;101117.72;;;9.66;100.00
21640;BME280;10981;45.462;10.974;2024-03-17T03:28:39;101128.06;;;9.68;100.00
21640;BME280;10981;45.462;10.974;2024-03-17T03:31:10;101127.31;;;9.65;100.00
21640;BME280;10981;45.462;10.974;2024-03-17T03:33:37;101118.88;;;9.49;100.00
21640;BME280;10981;45.462;10.974;2024-03-17T03:36:12;101126.81;;;9.47;100.00
21640;BME280;10981;45.462;10.974;2024-03-17T03:38:40;101126.19;;;9.44;100.00
21640;BME280;10981;45.462;10.974;2024-03-17T03:41:14;101133.50;;;9.39;100.00
21640;BME280;10981;45.462;10.974;2024-03-17T03:43:42;101144.06;;;9.37;100.00
21640;BME280;10981;45.462;10.974;2024-03-17T03:46:10;101152.09;;;9.34;100.00
21640;BME280;10981;45.462;10.974;2024-03-17T03:48:37;101161.19;;;9.28;100.00
21640;BME280;10981;45.462;10.974;2024-03-17T03:51:06;101157.94;;;9.25;100.00
21640;BME280;10981;45.462;10.974;2024-03-17T03:53:34;101155.56;;;9.22;100.00
21640;BME280;10981;45.462;10.974;2024-03-17T03:56:04;101168.78;;;9.19;100.00
21640;BME280;10981;45.462;10.974;2024-03-17T03:58:34;101158.75;;;9.12;100.00
21640;BME280;10981;45.462;10.974;2024-03-17T04:01:05;101163.25;;;9.10;100.00
21640;BME280;10981;45.462;10.974;2024-03-17T04:03:36;101165.75;;;9.12;100.00
21640;BME280;10981;45.462;10.974;2024-03-17T04:06:04;101167.56;;;9.11;100.00
21640;BME280;10981;45.462;10.974;2024-03-17T04:08:36;101168.66;;;9.07;100.00
21640;BME280;10981;45.462;10.974;2024-03-17T04:11:04;101165.53;;;9.02;100.00
21640;BME280;10981;45.462;10.974;2024-03-17T04:13:32;101167.44;;;9.00;100.00
21640;BME280;10981;45.462;10.974;2024-03-17T04:16:00;101165.75;;;8.99;100.00
21640;BME280;10981;45.462;10.974;2024-03-17T04:18:28;101167.44;;;9.00;100.00
21640;BME280;10981;45.462;10.974;2024-03-17T04:21:06;101169.81;;;9.03;100.00
21640;BME280;10981;45.462;10.974;2024-03-17T04:23:36;101167.03;;;9.06;100.00
21640;BME280;10981;45.462;10.974;2024-03-17T04:26:09;101167.84;;;9.07;100.00
21640;BME280;10981;45.462;10.974;2024-03-17T04:28:36;101161.06;;;9.04;100.00
21640;BME280;10981;45.462;10.974;2024-03-17T04:31:05;101173.38;;;9.02;100.00
21640;BME280;10981;45.462;10.974;2024-03-17T04:33:33;101162.22;;;9.00;100.00
21640;BME280;10981;45.462;10.974;2024-03-17T04:36:01;101175.44;;;8.97;100.00
21640;BME280;10981;45.462;10.974;2024-03-17T04:38:31;101169.28;;;8.98;100.00
21640;BME280;10981;45.462;10.974;2024-03-17T04:40:59;101171.50;;;9.04;100.00
21640;BME280;10981;45.462;10.974;2024-03-17T04:43:32;101164.50;;;9.05;100.00
21640;BME280;10981;45.462;10.974;2024-03-17T04:46:04;101168.13;;;9.02;100.00
21640;BME280;10981;45.462;10.974;2024-03-17T04:48:32;101165.53;;;9.02;100.00
21640;BME280;10981;45.462;10.974;2024-03-17T04:51:00;101164.50;;;9.05;100.00
21640;BME280;10981;45.462;10.974;2024-03-17T04:53:28;101167.75;;;9.08;100.00
21640;BME280;10981;45.462;10.974;2024-03-17T04:56:03;101163.25;;;9.10;100.00
21640;BME280;10981;45.462;10.974;2024-03-17T04:58:32;101163.91;;;9.14;100.00
21640;BME280;10981;45.462;10.974;2024-03-17T05:01:05;101170.28;;;9.23;100.00
21640;BME280;10981;45.462;10.974;2024-03-17T05:03:34;101178.53;;;9.29;100.00
21640;BME280;10981;45.462;10.974;2024-03-17T05:06:03;101180.63;;;9.24;100.00
21640;BME280;10981;45.462;10.974;2024-03-17T05:08:32;101190.00;;;9.14;100.00
21640;BME280;10981;45.462;10.974;2024-03-17T05:11:03;101198.09;;;8.96;100.00
21640;BME280;10981;45.462;10.974;2024-03-17T05:13:35;101200.56;;;8.85;100.00
21640;BME280;10981;45.462;10.974;2024-03-17T05:16:03;101199.50;;;8.75;100.00
21640;BME280;10981;45.462;10.974;2024-03-17T05:18:30;101202.50;;;8.69;100.00
21640;BME280;10981;45.462;10.974;2024-03-17T05:21:03;101209.50;;;8.68;100.00
21640;BME280;10981;45.462;10.974;2024-03-17T05:23:33;101212.94;;;8.69;100.00
21640;BME280;10981;45.462;10.974;2024-03-17T05:26:01;101218.91;;;8.71;100.00
21640;BME280;10981;45.462;10.974;2024-03-17T05:28:30;101211.78;;;8.73;100.00
21640;BME280;10981;45.462;10.974;2024-03-17T05:30:57;101219.53;;;8.74;100.00
21640;BME280;10981;45.462;10.974;2024-03-17T05:33:26;101214.22;;;8.76;100.00
21640;BME280;10981;45.462;10.974;2024-03-17T05:36:01;101219.13;;;8.80;100.00
21640;BME280;10981;45.462;10.974;2024-03-17T05:38:30;101218.94;;;8.83;100.00
21640;BME280;10981;45.462;10.974;2024-03-17T05:41:00;101220.31;;;8.89;100.00
21640;BME280;10981;45.462;10.974;2024-03-17T05:43:31;101220.94;;;8.93;100.00
21640;BME280;10981;45.462;10.974;2024-03-17T05:46:01;101234.34;;;9.01;100.00
21640;BME280;10981;45.462;10.974;2024-03-17T05:48:29;101230.50;;;9.07;100.00
21640;BME280;10981;45.462;10.974;2024-03-17T05:50:57;101229.97;;;9.14;100.00
21640;BME280;10981;45.462;10.974;2024-03-17T05:53:24;101234.50;;;9.25;100.00
21640;BME280;10981;45.462;10.974;2024-03-17T05:55:51;101240.69;;;9.37;100.00
21640;BME280;10981;45.462;10.974;2024-03-17T05:58:19;101233.91;;;9.47;100.00
21640;BME280;10981;45.462;10.974;2024-03-17T06:00:46;101232.22;;;9.59;100.00
21640;BME280;10981;45.462;10.974;2024-03-17T06:03:13;101237.44;;;9.72;100.00
21640;BME280;10981;45.462;10.974;2024-03-17T06:05:41;101241.13;;;9.82;100.00
21640;BME280;10981;45.462;10.974;2024-03-17T06:08:09;101240.50;;;9.92;100.00
21640;BME280;10981;45.462;10.974;2024-03-17T06:10:37;101238.41;;;9.97;100.00
21640;BME280;10981;45.462;10.974;2024-03-17T06:13:05;101238.06;;;9.89;100.00
21640;BME280;10981;45.462;10.974;2024-03-17T06:15:33;101242.78;;;9.84;100.00
21640;BME280;10981;45.462;10.974;2024-03-17T06:18:00;101252.22;;;9.99;100.00
21640;BME280;10981;45.462;10.974;2024-03-17T06:20:29;101240.56;;;10.16;100.00
21640;BME280;10981;45.462;10.974;2024-03-17T06:22:56;101240.97;;;10.23;100.00
21640;BME280;10981;45.462;10.974;2024-03-17T06:25:24;101234.16;;;10.20;100.00
21640;BME280;10981;45.462;10.974;2024-03-17T06:27:51;101242.34;;;10.28;100.00
21640;BME280;10981;45.462;10.974;2024-03-17T06:30:19;101244.59;;;10.46;100.00
21640;BME280;10981;45.462;10.974;2024-03-17T06:32:47;101241.41;;;10.67;100.00
21640;BME280;10981;45.462;10.974;2024-03-17T06:35:15;101240.56;;;10.90;100.00
21640;BME280;10981;45.462;10.974;2024-03-17T06:37:42;101239.91;;;11.11;100.00
21640;BME280;10981;45.462;10.974;2024-03-17T06:40:13;101245.47;;;11.31;100.00
21640;BME280;10981;45.462;10.974;2024-03-17T06:42:41;101241.31;;;11.28;100.00
21640;BME280;10981;45.462;10.974;2024-03-17T06:45:09;101246.66;;;11.26;100.00
21640;BME280;10981;45.462;10.974;2024-03-17T06:47:37;101261.06;;;11.32;100.00
21640;BME280;10981;45.462;10.974;2024-03-17T06:50:05;101258.13;;;11.37;100.00
21640;BME280;10981;45.462;10.974;2024-03-17T06:52:34;101258.31;;;11.34;100.00
21640;BME280;10981;45.462;10.974;2024-03-17T06:55:01;101255.38;;;11.38;100.00
21640;BME280;10981;45.462;10.974;2024-03-17T06:57:28;101259.25;;;11.57;100.00
21640;BME280;10981;45.462;10.974;2024-03-17T06:59:56;101265.81;;;11.74;100.00
21640;BME280;10981;45.462;10.974;2024-03-17T07:02:23;101256.63;;;11.91;100.00
21640;BME280;10981;45.462;10.974;2024-03-17T07:05:12;101258.34;;;12.15;100.00
21640;BME280;10981;45.462;10.974;2024-03-17T07:07:44;101258.41;;;12.58;100.00
21640;BME280;10981;45.462;10.974;2024-03-17T07:10:12;101258.25;;;13.36;100.00
21640;BME280;10981;45.462;10.974;2024-03-17T07:12:41;101260.91;;;13.88;100.00
21640;BME280;10981;45.462;10.974;2024-03-17T07:15:08;101261.47;;;14.23;100.00
21640;BME280;10981;45.462;10.974;2024-03-17T07:17:36;101259.72;;;14.43;100.00
21640;BME280;10981;45.462;10.974;2024-03-17T07:20:04;101252.88;;;15.40;100.00
21640;BME280;10981;45.462;10.974;2024-03-17T07:22:35;101253.59;;;15.90;100.00
21640;BME280;10981;45.462;10.974;2024-03-17T07:25:03;101249.94;;;16.28;100.00
21640;BME280;10981;45.462;10.974;2024-03-17T07:27:31;101250.22;;;16.89;100.00
21640;BME280;10981;45.462;10.974;2024-03-17T07:29:59;101252.72;;;17.53;100.00
21640;BME280;10981;45.462;10.974;2024-03-17T07:32:26;101259.66;;;18.07;100.00
21640;BME280;10981;45.462;10.974;2024-03-17T07:34:54;101257.66;;;18.60;100.00
21640;BME280;10981;45.462;10.974;2024-03-17T07:37:21;101254.56;;;18.89;100.00
21640;BME280;10981;45.462;10.974;2024-03-17T07:39:48;101261.88;;;18.95;100.00
21640;BME280;10981;45.462;10.974;2024-03-17T07:42:16;101255.84;;;18.52;100.00
21640;BME280;10981;45.462;10.974;2024-03-17T07:44:44;101257.41;;;17.59;100.00
21640;BME280;10981;45.462;10.974;2024-03-17T07:47:11;101267.66;;;17.36;100.00
21640;BME280;10981;45.462;10.974;2024-03-17T07:49:39;101261.31;;;17.29;100.00
21640;BME280;10981;45.462;10.974;2024-03-17T07:52:06;101271.41;;;17.07;100.00
21640;BME280;10981;45.462;10.974;2024-03-17T07:54:33;101265.03;;;16.82;100.00
21640;BME280;10981;45.462;10.974;2024-03-17T07:57:02;101268.34;;;16.66;100.00
21640;BME280;10981;45.462;10.974;2024-03-17T07:59:29;101272.88;;;16.28;100.00
21640;BME280;10981;45.462;10.974;2024-03-17T08:01:57;101268.13;;;16.31;100.00
21640;BME280;10981;45.462;10.974;2024-03-17T08:04:25;101272.22;;;16.44;100.00
21640;BME280;10981;45.462;10.974;2024-03-17T08:06:52;101277.31;;;16.73;100.00
21640;BME280;10981;45.462;10.974;2024-03-17T08:09:20;101271.53;;;16.88;100.00
21640;BME280;10981;45.462;10.974;2024-03-17T08:11:47;101273.03;;;16.90;100.00
21640;BME280;10981;45.462;10.974;2024-03-17T08:14:15;101271.50;;;16.70;100.00
21640;BME280;10981;45.462;10.974;2024-03-17T08:16:42;101275.28;;;16.67;100.00
21640;BME280;10981;45.462;10.974;2024-03-17T08:19:10;101284.84;;;16.96;100.00
21640;BME280;10981;45.462;10.974;2024-03-17T08:21:37;101288.31;;;17.14;100.00
21640;BME280;10981;45.462;10.974;2024-03-17T08:24:04;101284.06;;;17.04;100.00
21640;BME280;10981;45.462;10.974;2024-03-17T08:26:32;101284.16;;;17.12;100.00
21640;BME280;10981;45.462;10.974;2024-03-17T08:28:59;101280.22;;;17.16;100.00
21640;BME280;10981;45.462;10.974;2024-03-17T08:31:26;101278.84;;;17.56;100.00
21640;BME280;10981;45.462;10.974;2024-03-17T08:33:53;101279.22;;;18.73;100.00
21640;BME280;10981;45.462;10.974;2024-03-17T08:36:21;101280.78;;;19.09;100.00
21640;BME280;10981;45.462;10.974;2024-03-17T08:38:48;101281.94;;;18.98;100.00
21640;BME280;10981;45.462;10.974;2024-03-17T08:41:15;101280.13;;;18.90;100.00
21640;BME280;10981;45.462;10.974;2024-03-17T08:43:43;101273.75;;;18.83;100.00
21640;BME280;10981;45.462;10.974;2024-03-17T08:46:11;101277.91;;;18.86;100.00
21640;BME280;10981;45.462;10.974;2024-03-17T08:48:41;101268.59;;;18.65;100.00
21640;BME280;10981;45.462;10.974;2024-03-17T08:51:11;101274.16;;;18.37;100.00
21640;BME280;10981;45.462;10.974;2024-03-17T08:53:38;101275.09;;;18.20;100.00
21640;BME280;10981;45.462;10.974;2024-03-17T08:56:06;101269.38;;;17.98;100.00
21640;BME280;10981;45.462;10.974;2024-03-17T08:58:33;101272.13;;;17.88;100.00
21640;BME280;10981;45.462;10.974;2024-03-17T09:01:05;101269.16;;;17.65;100.00
21640;BME280;10981;45.462;10.974;2024-03-17T09:03:35;101272.47;;;17.41;100.00
21640;BME280;10981;45.462;10.974;2024-03-17T09:06:11;101268.31;;;17.38;100.00
21640;BME280;10981;45.462;10.974;2024-03-17T09:08:41;101265.44;;;17.23;100.00
21640;BME280;10981;45.462;10.974;2024-03-17T09:11:15;101267.31;;;16.95;100.00
21640;BME280;10981;45.462;10.974;2024-03-17T09:13:42;101263.66;;;17.32;100.00
21640;BME280;10981;45.462;10.974;2024-03-17T09:16:10;101264.59;;;17.49;100.00
21640;BME280;10981;45.462;10.974;2024-03-17T09:18:38;101262.31;;;17.80;100.00
21640;BME280;10981;45.462;10.974;2024-03-17T09:21:08;101261.78;;;18.03;100.00
21640;BME280;10981;45.462;10.974;2024-03-17T09:23:35;101261.91;;;18.28;100.00
21640;BME280;10981;45.462;10.974;2024-03-17T09:26:08;101261.72;;;18.38;100.00
21640;BME280;10981;45.462;10.974;2024-03-17T09:28:36;101254.97;;;18.43;100.00
21640;BME280;10981;45.462;10.974;2024-03-17T09:31:04;101264.88;;;18.33;100.00
21640;BME280;10981;45.462;10.974;2024-03-17T09:33:35;101253.09;;;18.27;100.00
21640;BME280;10981;45.462;10.974;2024-03-17T09:36:05;101256.66;;;18.44;100.00
21640;BME280;10981;45.462;10.974;2024-03-17T09:38:36;101254.50;;;18.56;100.00
21640;BME280;10981;45.462;10.974;2024-03-17T09:41:05;101255.03;;;18.68;100.00
21640;BME280;10981;45.462;10.974;2024-03-17T09:43:34;101258.19;;;18.88;100.00
21640;BME280;10981;45.462;10.974;2024-03-17T09:46:03;101262.19;;;18.92;100.00
21640;BME280;10981;45.462;10.974;2024-03-17T09:48:31;101257.06;;;18.91;100.00
21640;BME280;10981;45.462;10.974;2024-03-17T09:51:02;101253.44;;;19.08;100.00
21640;BME280;10981;45.462;10.974;2024-03-17T09:53:35;101252.75;;;19.23;100.00
21640;BME280;10981;45.462;10.974;2024-03-17T09:56:13;101255.59;;;19.30;100.00
21640;BME280;10981;45.462;10.974;2024-03-17T09:58:50;101247.97;;;19.35;100.00
21640;BME280;10981;45.462;10.974;2024-03-17T10:01:17;101243.81;;;19.24;100.00
21640;BME280;10981;45.462;10.974;2024-03-17T10:03:51;101243.66;;;19.17;100.00
21640;BME280;10981;45.462;10.974;2024-03-17T10:06:23;101253.09;;;19.03;100.00
21640;BME280;10981;45.462;10.974;2024-03-17T10:08:59;101243.09;;;18.56;100.00
21640;BME280;10981;45.462;10.974;2024-03-17T10:11:42;101242.28;;;18.63;100.00
21640;BME280;10981;45.462;10.974;2024-03-17T10:14:09;101241.59;;;18.53;100.00
21640;BME280;10981;45.462;10.974;2024-03-17T10:16:39;101231.00;;;18.53;100.00
21640;BME280;10981;45.462;10.974;2024-03-17T10:19:14;101236.47;;;18.60;100.00
21640;BME280;10981;45.462;10.974;2024-03-17T10:21:46;101237.97;;;18.62;100.00
21640;BME280;10981;45.462;10.974;2024-03-17T10:24:27;101238.13;;;18.69;100.00
21640;BME280;10981;45.462;10.974;2024-03-17T10:26:57;101233.50;;;18.71;100.00
21640;BME280;10981;45.462;10.974;2024-03-17T10:29:32;101231.69;;;18.80;100.00
21640;BME280;10981;45.462;10.974;2024-03-17T10:32:11;101244.28;;;18.78;100.00
21640;BME280;10981;45.462;10.974;2024-03-17T10:34:40;101247.06;;;18.68;100.00
21640;BME280;10981;45.462;10.974;2024-03-17T10:37:20;101232.66;;;18.87;100.00
21640;BME280;10981;45.462;10.974;2024-03-17T10:39:54;101226.56;;;19.11;100.00
21640;BME280;10981;45.462;10.974;2024-03-17T10:42:29;101222.75;;;19.14;100.00
21640;BME280;10981;45.462;10.974;2024-03-17T10:44:58;101228.22;;;18.71;100.00
21640;BME280;10981;45.462;10.974;2024-03-17T10:47:27;101225.31;;;18.32;100.00
21640;BME280;10981;45.462;10.974;2024-03-17T10:49:56;101218.91;;;18.51;100.00
21640;BME280;10981;45.462;10.974;2024-03-17T10:52:24;101221.91;;;18.72;100.00
21640;BME280;10981;45.462;10.974;2024-03-17T10:54:56;101219.59;;;18.77;100.00
21640;BME280;10981;45.462;10.974;2024-03-17T11:00:04;101207.50;;;18.67;100.00
21640;BME280;10981;45.462;10.974;2024-03-17T11:02:45;101200.50;;;18.49;100.00
21640;BME280;10981;45.462;10.974;2024-03-17T11:05:20;101206.16;;;18.71;100.00
21640;BME280;10981;45.462;10.974;2024-03-17T11:07:50;101200.75;;;19.05;100.00
21640;BME280;10981;45.462;10.974;2024-03-17T11:10:26;101199.25;;;19.19;100.00
21640;BME280;10981;45.462;10.974;2024-03-17T11:12:58;101202.81;;;19.51;100.00
21640;BME280;10981;45.462;10.974;2024-03-17T11:20:39;101195.31;;;19.55;100.00
21640;BME280;10981;45.462;10.974;2024-03-17T11:23:07;101188.75;;;19.34;100.00
21640;BME280;10981;45.462;10.974;2024-03-17T11:28:04;101182.97;;;19.22;100.00
21640;BME280;10981;45.462;10.974;2024-03-17T11:30:44;101185.44;;;19.24;100.00
21640;BME280;10981;45.462;10.974;2024-03-17T11:39:07;101173.00;;;19.33;100.00
21640;BME280;10981;45.462;10.974;2024-03-17T11:41:43;101173.00;;;19.41;100.00
21640;BME280;10981;45.462;10.974;2024-03-17T11:47:00;101156.63;;;19.13;100.00
21640;BME280;10981;45.462;10.974;2024-03-17T11:49:36;101160.28;;;19.20;100.00
21640;BME280;10981;45.462;10.974;2024-03-17T11:52:10;101150.97;;;19.24;100.00
21640;BME280;10981;45.462;10.974;2024-03-17T11:54:45;101152.94;;;19.38;100.00
21640;BME280;10981;45.462;10.974;2024-03-17T11:57:24;101150.53;;;19.60;100.00
21640;BME280;10981;45.462;10.974;2024-03-17T11:59:52;101152.03;;;19.54;100.00
21640;BME280;10981;45.462;10.974;2024-03-17T12:02:30;101150.38;;;19.62;100.00
21640;BME280;10981;45.462;10.974;2024-03-17T12:04:59;101149.25;;;19.39;100.00
21640;BME280;10981;45.462;10.974;2024-03-17T12:07:27;101143.16;;;19.39;100.00
21640;BME280;10981;45.462;10.974;2024-03-17T12:09:57;101137.66;;;19.49;100.00
21640;BME280;10981;45.462;10.974;2024-03-17T12:12:26;101138.09;;;19.60;100.00
21640;BME280;10981;45.462;10.974;2024-03-17T12:15:10;101135.63;;;19.59;100.00
21640;BME280;10981;45.462;10.974;2024-03-17T12:17:43;101128.16;;;19.54;100.00
21640;BME280;10981;45.462;10.974;2024-03-17T12:20:20;101122.38;;;19.51;100.00
21640;BME280;10981;45.462;10.974;2024-03-17T12:22:48;101115.88;;;19.62;100.00
21640;BME280;10981;45.462;10.974;2024-03-17T12:25:20;101117.16;;;19.66;100.00
21640;BME280;10981;45.462;10.974;2024-03-17T12:27:48;101110.69;;;19.68;100.00
21640;BME280;10981;45.462;10.974;2024-03-17T12:30:16;101111.84;;;19.66;100.00
21640;BME280;10981;45.462;10.974;2024-03-17T12:32:45;101112.84;;;19.65;100.00
21640;BME280;10981;45.462;10.974;2024-03-17T12:35:17;101098.75;;;19.64;100.00
21640;BME280;10981;45.462;10.974;2024-03-17T12:37:47;101103.47;;;19.54;100.00
21640;BME280;10981;45.462;10.974;2024-03-17T12:40:22;101099.41;;;19.66;100.00
21640;BME280;10981;45.462;10.974;2024-03-17T12:42:51;101095.19;;;19.88;100.00
21640;BME280;10981;45.462;10.974;2024-03-17T12:45:22;101096.66;;;20.14;100.00
21640;BME280;10981;45.462;10.974;2024-03-17T12:47:50;101099.47;;;20.59;100.00
21640;BME280;10981;45.462;10.974;2024-03-17T12:50:19;101096.22;;;20.72;100.00
21640;BME280;10981;45.462;10.974;2024-03-17T12:52:54;101089.47;;;20.99;100.00
21640;BME280;10981;45.462;10.974;2024-03-17T12:55:23;101095.88;;;21.05;100.00
21640;BME280;10981;45.462;10.974;2024-03-17T12:58:10;101079.47;;;20.86;100.00
21640;BME280;10981;45.462;10.974;2024-03-17T13:01:01;101079.03;;;21.13;100.00
21640;BME280;10981;45.462;10.974;2024-03-17T13:03:32;101076.03;;;21.52;100.00